Corsa — V2PZ2 — position and weather

sailwx.info

Track history (hours):
 
Tides and Currents Weather Stations Pressure Air Temp Water Temp Dewpoint Dewpoint Depression Visibility Wind Speed Wind Dir Waves Ship Positions

Corsa

Last reported at 2015-Jul-31 22:18 UTC. Time now 2015-Jul-31 23:32 UTC.
Position N 34°40' E 033°04'.

Length 101 m; draft 4.7 m.

Type: Ship. MMSI: 304624000.

Date/timePositionNaut miles runAvg speedWind from/ knotsBaromVisibWave heightAir tempDewpointWater temp
2015-Jul-31 22:18N 34°40' E 033°04'0 0.0
2015-Jul-31 20:33N 34°40' E 033°04'0 0.0
2015-Jul-31 19:33N 34°40' E 033°04'0 0.0
2015-Jul-31 16:27N 34°40' E 033°04'0 0.0
2015-Jul-31 15:18N 34°40' E 033°04'0 0.0
2015-Jul-31 13:24N 34°40' E 033°04'0 0.0
2015-Jul-31 12:33N 34°40' E 033°04'0 0.2
2015-Jul-31 11:33N 34°40' E 033°04'3 2.5
2015-Jul-31 10:30N 34°39' E 033°01'0 0.0
2015-Jul-31 09:33N 34°39' E 033°01'0 0.0
2015-Jul-31 08:33N 34°39' E 033°01'0 0.0
2015-Jul-31 07:33N 34°39' E 033°01'0 0.0
2015-Jul-31 06:33N 34°39' E 033°01'0 0.0
2015-Jul-31 05:33N 34°39' E 033°01'0 0.0
2015-Jul-31 04:33N 34°39' E 033°01'0 0.3
2015-Jul-31 03:33N 34°39' E 033°01'3 2.9
2015-Jul-31 02:31N 34°40' E 033°05'0 0.0
2015-Jul-31 01:31N 34°40' E 033°05'0 0.0
2015-Jul-31 00:31N 34°40' E 033°05'0 0.4
2015-Jul-30 23:33N 34°40' E 033°05'1010.0
2015-Jul-30 22:33N 34°30' E 033°01'1111.3
2015-Jul-30 21:33N 34°32' E 032°47'1312.1
2015-Jul-30 20:31N 34°36' E 032°33'1211.8
2015-Jul-30 19:32N 34°41' E 032°20'4212.7
2015-Jul-30 16:15N 34°59' E 031°34'1413.0
2015-Jul-30 15:12N 35°06' E 031°20'1112.9
2015-Jul-30 14:19N 35°11' E 031°07'1012.7
2015-Jul-30 13:33N 35°15' E 030°57'15611.8
2015-Jul-30 00:19N 36°29' E 028°08'911.8
2015-Jul-29 23:33N 36°30' E 027°56'1211.8
2015-Jul-29 22:33N 36°30' E 027°42'1212.4
2015-Jul-29 21:33N 36°31' E 027°26'1212.4
2015-Jul-29 20:33N 36°31' E 027°11'1212.2
2015-Jul-29 19:32N 36°36' E 026°56'1212.2
2015-Jul-29 18:33N 36°42' E 026°44'1312.5
2015-Jul-29 17:33N 36°48' E 026°30'1312.7
2015-Jul-29 16:32N 36°55' E 026°16'1212.4
2015-Jul-29 15:33N 37°05' E 026°08'1312.7
2015-Jul-29 14:34N 37°16' E 025°59'1212.3
2015-Jul-29 13:33N 37°26' E 025°51'1212.2
2015-Jul-29 12:33N 37°37' E 025°45'1212.4
2015-Jul-29 11:33N 37°48' E 025°37'7912.5
2015-Jul-29 05:15N 38°55' E 024°44'912.6
2015-Jul-29 04:33N 39°03' E 024°39'1212.3
2015-Jul-29 03:33N 39°14' E 024°32'1211.9
2015-Jul-29 02:33N 39°24' E 024°24'10 0.2
2015-Jul-27 00:33N 39°15' E 024°30'109 9.0
2015-Jul-26 12:30N 37°27' E 024°44'9 9.8
2015-Jul-26 11:34N 37°20' E 024°51'5 5.1
2015-Jul-26 10:33N 37°18' E 024°57'0 0.0
2015-Jul-26 09:33N 37°18' E 024°57'0 0.0
2015-Jul-26 08:33N 37°18' E 024°57'0 0.0
2015-Jul-26 07:33N 37°18' E 024°57'0 0.0
2015-Jul-26 06:33N 37°18' E 024°57'0 0.0
2015-Jul-26 05:33N 37°18' E 024°57'0 0.0
2015-Jul-26 04:33N 37°18' E 024°57'0 0.0
2015-Jul-26 03:33N 37°18' E 024°57'0 0.0
2015-Jul-26 02:33N 37°18' E 024°57'0 0.0
2015-Jul-26 01:33N 37°18' E 024°57'0 0.0
2015-Jul-26 00:33N 37°18' E 024°57'0 0.0
2015-Jul-25 23:33N 37°18' E 024°57'0 0.0
2015-Jul-25 22:33N 37°18' E 024°57'0 0.0
2015-Jul-25 21:33N 37°18' E 024°57'0 0.0
2015-Jul-25 20:33N 37°18' E 024°57'0 0.0
2015-Jul-25 19:33N 37°18' E 024°57'0 0.0
2015-Jul-25 18:31N 37°18' E 024°57'0 0.0
2015-Jul-25 17:31N 37°18' E 024°57'0 0.0
2015-Jul-25 16:31N 37°18' E 024°57'0 0.0
2015-Jul-25 15:31N 37°18' E 024°57'0 0.0
2015-Jul-25 14:31N 37°18' E 024°57'0 0.0
2015-Jul-25 13:31N 37°18' E 024°57'0 0.0
2015-Jul-25 12:31N 37°18' E 024°57'0 0.0
2015-Jul-25 11:31N 37°18' E 024°57'0 0.0
2015-Jul-25 10:31N 37°18' E 024°57'0 0.0
2015-Jul-25 09:31N 37°18' E 024°57'0 0.0
2015-Jul-25 08:31N 37°18' E 024°57'0 0.0
2015-Jul-25 07:31N 37°18' E 024°57'0 0.0
2015-Jul-25 06:31N 37°18' E 024°57'0 0.0
2015-Jul-25 05:31N 37°18' E 024°57'0 0.0
2015-Jul-25 04:31N 37°18' E 024°57'0 0.0
2015-Jul-25 03:31N 37°18' E 024°57'0 0.0
2015-Jul-25 02:31N 37°18' E 024°57'0 0.0
2015-Jul-25 01:31N 37°18' E 024°57'0 0.0
2015-Jul-25 00:31N 37°18' E 024°57'0 0.0
2015-Jul-24 23:31N 37°18' E 024°57'0 0.0
2015-Jul-24 22:31N 37°18' E 024°57'0 0.0
2015-Jul-24 21:31N 37°18' E 024°57'0 0.0
2015-Jul-24 20:31N 37°18' E 024°57'0 0.0
2015-Jul-24 19:31N 37°18' E 024°57'0 0.0
2015-Jul-24 18:31N 37°18' E 024°57'0 0.0
2015-Jul-24 17:32N 37°18' E 024°57'0 0.0
2015-Jul-24 16:31N 37°18' E 024°57'0 0.0
2015-Jul-24 15:31N 37°18' E 024°57'0 0.0
2015-Jul-24 14:31N 37°18' E 024°57'0 0.0
2015-Jul-24 13:31N 37°18' E 024°57'0 0.0
2015-Jul-24 12:31N 37°18' E 024°57'0 0.0
2015-Jul-24 11:31N 37°18' E 024°57'0 0.0
2015-Jul-24 10:31N 37°18' E 024°57'0 0.0
2015-Jul-24 09:31N 37°18' E 024°57'0 0.0
2015-Jul-24 08:31N 37°18' E 024°57'0 0.0
2015-Jul-24 07:31N 37°18' E 024°57'0 0.0
2015-Jul-24 06:31N 37°18' E 024°57'0 0.0
2015-Jul-24 05:31N 37°18' E 024°57'0 0.0
2015-Jul-24 04:31N 37°18' E 024°57'0 0.0
2015-Jul-24 03:31N 37°18' E 024°57'0 0.0
2015-Jul-24 02:31N 37°18' E 024°57'0 0.0
2015-Jul-24 01:31N 37°18' E 024°57'0 0.0
2015-Jul-24 00:31N 37°18' E 024°57'0 0.0
2015-Jul-23 23:31N 37°18' E 024°57'0 0.0
2015-Jul-23 22:31N 37°18' E 024°57'0 0.0
2015-Jul-23 21:31N 37°18' E 024°57'0 0.0
2015-Jul-23 20:31N 37°18' E 024°57'0 0.0
2015-Jul-23 19:31N 37°18' E 024°57'0 0.0
2015-Jul-23 18:31N 37°18' E 024°57'0 0.0
2015-Jul-23 17:31N 37°18' E 024°57'0 0.0
2015-Jul-23 16:31N 37°18' E 024°57'0 0.0
2015-Jul-23 15:31N 37°18' E 024°57'0 0.0
2015-Jul-23 14:31N 37°18' E 024°57'0 0.0
2015-Jul-23 13:31N 37°18' E 024°57'0 0.0
2015-Jul-23 12:31N 37°18' E 024°57'0 0.0
2015-Jul-23 11:31N 37°18' E 024°57'0 0.0
2015-Jul-23 10:25N 37°18' E 024°57'0 0.0
2015-Jul-23 09:31N 37°18' E 024°57'0 0.0
2015-Jul-23 08:31N 37°18' E 024°57'0 0.0
2015-Jul-23 07:31N 37°18' E 024°57'0 0.0
2015-Jul-23 06:31N 37°18' E 024°57'0 0.0
2015-Jul-23 05:31N 37°18' E 024°57'0 0.0
2015-Jul-23 04:31N 37°18' E 024°57'0 0.0
2015-Jul-23 03:31N 37°18' E 024°57'0 0.0
2015-Jul-23 02:31N 37°18' E 024°57'0 0.0
2015-Jul-23 01:31N 37°18' E 024°57'0 0.0
2015-Jul-23 00:31N 37°18' E 024°57'0 0.0
2015-Jul-22 23:31N 37°18' E 024°57'2 2.4
2015-Jul-22 22:33N 37°20' E 024°58'5 4.6
2015-Jul-22 21:31N 37°25' E 024°59'0 0.0
2015-Jul-22 20:31N 37°25' E 024°59'0 0.0
2015-Jul-22 19:31N 37°25' E 024°59'0 0.0
2015-Jul-22 18:31N 37°25' E 024°59'0 0.0
2015-Jul-22 17:32N 37°25' E 024°59'0 0.1
2015-Jul-22 16:33N 37°25' E 024°59'5 5.4
2015-Jul-22 15:33N 37°23' E 025°05'1211.6
2015-Jul-22 14:33N 37°19' E 025°19'1211.8
2015-Jul-22 13:33N 37°14' E 025°33'1110.7
2015-Jul-22 12:32N 37°11' E 025°46'1010.5
2015-Jul-22 11:33N 37°06' E 025°57'1110.7
2015-Jul-22 10:33N 36°59' E 026°08'1110.3
2015-Jul-22 09:31N 36°52' E 026°17'11 9.7
2015-Jul-22 08:24N 36°44' E 026°26'2010.7
2015-Jul-22 06:30N 36°29' E 026°44'3811.4
2015-Jul-22 03:11N 36°01' E 027°16'3910.4
2015-Jul-21 23:25N 35°36' E 027°53'  
Track history (hours):
 
Tides and Currents Weather Stations Pressure Air Temp Water Temp Dewpoint Dewpoint Depression Visibility Wind Speed Wind Dir Waves Ship Positions

Corsa

Last reported at 2015-Jul-31 22:18 UTC. Time now 2015-Jul-31 23:32 UTC.
Position N 34°40' E 033°04'.

Length 101 m; draft 4.7 m.

Type: Ship. MMSI: 304624000.

Date/timePositionNaut miles runAvg speedWind from/ knotsBaromVisibWave heightAir tempDewpointWater temp
2015-Jul-31 22:18N 34°40' E 033°04'0 0.0
2015-Jul-31 20:33N 34°40' E 033°04'0 0.0
2015-Jul-31 19:33N 34°40' E 033°04'0 0.0
2015-Jul-31 16:27N 34°40' E 033°04'0 0.0
2015-Jul-31 15:18N 34°40' E 033°04'0 0.0
2015-Jul-31 13:24N 34°40' E 033°04'0 0.0
2015-Jul-31 12:33N 34°40' E 033°04'0 0.2
2015-Jul-31 11:33N 34°40' E 033°04'3 2.5
2015-Jul-31 10:30N 34°39' E 033°01'0 0.0
2015-Jul-31 09:33N 34°39' E 033°01'0 0.0
2015-Jul-31 08:33N 34°39' E 033°01'0 0.0
2015-Jul-31 07:33N 34°39' E 033°01'0 0.0
2015-Jul-31 06:33N 34°39' E 033°01'0 0.0
2015-Jul-31 05:33N 34°39' E 033°01'0 0.0
2015-Jul-31 04:33N 34°39' E 033°01'0 0.3
2015-Jul-31 03:33N 34°39' E 033°01'3 2.9
2015-Jul-31 02:31N 34°40' E 033°05'0 0.0
2015-Jul-31 01:31N 34°40' E 033°05'0 0.0
2015-Jul-31 00:31N 34°40' E 033°05'0 0.4
2015-Jul-30 23:33N 34°40' E 033°05'1010.0
2015-Jul-30 22:33N 34°30' E 033°01'1111.3
2015-Jul-30 21:33N 34°32' E 032°47'1312.1
2015-Jul-30 20:31N 34°36' E 032°33'1211.8
2015-Jul-30 19:32N 34°41' E 032°20'4212.7
2015-Jul-30 16:15N 34°59' E 031°34'1413.0
2015-Jul-30 15:12N 35°06' E 031°20'1112.9
2015-Jul-30 14:19N 35°11' E 031°07'1012.7
2015-Jul-30 13:33N 35°15' E 030°57'15611.8
2015-Jul-30 00:19N 36°29' E 028°08'911.8
2015-Jul-29 23:33N 36°30' E 027°56'1211.8
2015-Jul-29 22:33N 36°30' E 027°42'1212.4
2015-Jul-29 21:33N 36°31' E 027°26'1212.4
2015-Jul-29 20:33N 36°31' E 027°11'1212.2
2015-Jul-29 19:32N 36°36' E 026°56'1212.2
2015-Jul-29 18:33N 36°42' E 026°44'1312.5
2015-Jul-29 17:33N 36°48' E 026°30'1312.7
2015-Jul-29 16:32N 36°55' E 026°16'1212.4
2015-Jul-29 15:33N 37°05' E 026°08'1312.7
2015-Jul-29 14:34N 37°16' E 025°59'1212.3
2015-Jul-29 13:33N 37°26' E 025°51'1212.2
2015-Jul-29 12:33N 37°37' E 025°45'1212.4
2015-Jul-29 11:33N 37°48' E 025°37'7912.5
2015-Jul-29 05:15N 38°55' E 024°44'912.6
2015-Jul-29 04:33N 39°03' E 024°39'1212.3
2015-Jul-29 03:33N 39°14' E 024°32'1211.9
2015-Jul-29 02:33N 39°24' E 024°24'10 0.2
2015-Jul-27 00:33N 39°15' E 024°30'109 9.0
2015-Jul-26 12:30N 37°27' E 024°44'9 9.8
2015-Jul-26 11:34N 37°20' E 024°51'5 5.1
2015-Jul-26 10:33N 37°18' E 024°57'0 0.0
2015-Jul-26 09:33N 37°18' E 024°57'0 0.0
2015-Jul-26 08:33N 37°18' E 024°57'0 0.0
2015-Jul-26 07:33N 37°18' E 024°57'0 0.0
2015-Jul-26 06:33N 37°18' E 024°57'0 0.0
2015-Jul-26 05:33N 37°18' E 024°57'0 0.0
2015-Jul-26 04:33N 37°18' E 024°57'0 0.0
2015-Jul-26 03:33N 37°18' E 024°57'0 0.0
2015-Jul-26 02:33N 37°18' E 024°57'0 0.0
2015-Jul-26 01:33N 37°18' E 024°57'0 0.0
2015-Jul-26 00:33N 37°18' E 024°57'0 0.0
2015-Jul-25 23:33N 37°18' E 024°57'0 0.0
2015-Jul-25 22:33N 37°18' E 024°57'0 0.0
2015-Jul-25 21:33N 37°18' E 024°57'0 0.0
2015-Jul-25 20:33N 37°18' E 024°57'0 0.0
2015-Jul-25 19:33N 37°18' E 024°57'0 0.0
2015-Jul-25 18:31N 37°18' E 024°57'0 0.0
2015-Jul-25 17:31N 37°18' E 024°57'0 0.0
2015-Jul-25 16:31N 37°18' E 024°57'0 0.0
2015-Jul-25 15:31N 37°18' E 024°57'0 0.0
2015-Jul-25 14:31N 37°18' E 024°57'0 0.0
2015-Jul-25 13:31N 37°18' E 024°57'0 0.0
2015-Jul-25 12:31N 37°18' E 024°57'0 0.0
2015-Jul-25 11:31N 37°18' E 024°57'0 0.0
2015-Jul-25 10:31N 37°18' E 024°57'0 0.0
2015-Jul-25 09:31N 37°18' E 024°57'0 0.0
2015-Jul-25 08:31N 37°18' E 024°57'0 0.0
2015-Jul-25 07:31N 37°18' E 024°57'0 0.0
2015-Jul-25 06:31N 37°18' E 024°57'0 0.0
2015-Jul-25 05:31N 37°18' E 024°57'0 0.0
2015-Jul-25 04:31N 37°18' E 024°57'0 0.0
2015-Jul-25 03:31N 37°18' E 024°57'0 0.0
2015-Jul-25 02:31N 37°18' E 024°57'0 0.0
2015-Jul-25 01:31N 37°18' E 024°57'0 0.0
2015-Jul-25 00:31N 37°18' E 024°57'0 0.0
2015-Jul-24 23:31N 37°18' E 024°57'0 0.0
2015-Jul-24 22:31N 37°18' E 024°57'0 0.0
2015-Jul-24 21:31N 37°18' E 024°57'0 0.0
2015-Jul-24 20:31N 37°18' E 024°57'0 0.0
2015-Jul-24 19:31N 37°18' E 024°57'0 0.0
2015-Jul-24 18:31N 37°18' E 024°57'0 0.0
2015-Jul-24 17:32N 37°18' E 024°57'0 0.0
2015-Jul-24 16:31N 37°18' E 024°57'0 0.0
2015-Jul-24 15:31N 37°18' E 024°57'0 0.0
2015-Jul-24 14:31N 37°18' E 024°57'0 0.0
2015-Jul-24 13:31N 37°18' E 024°57'0 0.0
2015-Jul-24 12:31N 37°18' E 024°57'0 0.0
2015-Jul-24 11:31N 37°18' E 024°57'0 0.0
2015-Jul-24 10:31N 37°18' E 024°57'0 0.0
2015-Jul-24 09:31N 37°18' E 024°57'0 0.0
2015-Jul-24 08:31N 37°18' E 024°57'0 0.0
2015-Jul-24 07:31N 37°18' E 024°57'0 0.0
2015-Jul-24 06:31N 37°18' E 024°57'0 0.0
2015-Jul-24 05:31N 37°18' E 024°57'0 0.0
2015-Jul-24 04:31N 37°18' E 024°57'0 0.0
2015-Jul-24 03:31N 37°18' E 024°57'0 0.0
2015-Jul-24 02:31N 37°18' E 024°57'0 0.0
2015-Jul-24 01:31N 37°18' E 024°57'0 0.0
2015-Jul-24 00:31N 37°18' E 024°57'0 0.0
2015-Jul-23 23:31N 37°18' E 024°57'0 0.0
2015-Jul-23 22:31N 37°18' E 024°57'0 0.0
2015-Jul-23 21:31N 37°18' E 024°57'0 0.0
2015-Jul-23 20:31N 37°18' E 024°57'0 0.0
2015-Jul-23 19:31N 37°18' E 024°57'0 0.0
2015-Jul-23 18:31N 37°18' E 024°57'0 0.0
2015-Jul-23 17:31N 37°18' E 024°57'0 0.0
2015-Jul-23 16:31N 37°18' E 024°57'0 0.0
2015-Jul-23 15:31N 37°18' E 024°57'0 0.0
2015-Jul-23 14:31N 37°18' E 024°57'0 0.0
2015-Jul-23 13:31N 37°18' E 024°57'0 0.0
2015-Jul-23 12:31N 37°18' E 024°57'0 0.0
2015-Jul-23 11:31N 37°18' E 024°57'0 0.0
2015-Jul-23 10:25N 37°18' E 024°57'0 0.0
2015-Jul-23 09:31N 37°18' E 024°57'0 0.0
2015-Jul-23 08:31N 37°18' E 024°57'0 0.0
2015-Jul-23 07:31N 37°18' E 024°57'0 0.0
2015-Jul-23 06:31N 37°18' E 024°57'0 0.0
2015-Jul-23 05:31N 37°18' E 024°57'0 0.0
2015-Jul-23 04:31N 37°18' E 024°57'0 0.0
2015-Jul-23 03:31N 37°18' E 024°57'0 0.0
2015-Jul-23 02:31N 37°18' E 024°57'0 0.0
2015-Jul-23 01:31N 37°18' E 024°57'0 0.0
2015-Jul-23 00:31N 37°18' E 024°57'0 0.0
2015-Jul-22 23:31N 37°18' E 024°57'2 2.4
2015-Jul-22 22:33N 37°20' E 024°58'5 4.6
2015-Jul-22 21:31N 37°25' E 024°59'0 0.0
2015-Jul-22 20:31N 37°25' E 024°59'0 0.0
2015-Jul-22 19:31N 37°25' E 024°59'0 0.0
2015-Jul-22 18:31N 37°25' E 024°59'0 0.0
2015-Jul-22 17:32N 37°25' E 024°59'0 0.1
2015-Jul-22 16:33N 37°25' E 024°59'5 5.4
2015-Jul-22 15:33N 37°23' E 025°05'1211.6
2015-Jul-22 14:33N 37°19' E 025°19'1211.8
2015-Jul-22 13:33N 37°14' E 025°33'1110.7
2015-Jul-22 12:32N 37°11' E 025°46'1010.5
2015-Jul-22 11:33N 37°06' E 025°57'1110.7
2015-Jul-22 10:33N 36°59' E 026°08'1110.3
2015-Jul-22 09:31N 36°52' E 026°17'11 9.7
2015-Jul-22 08:24N 36°44' E 026°26'2010.7
2015-Jul-22 06:30N 36°29' E 026°44'3811.4
2015-Jul-22 03:11N 36°01' E 027°16'3910.4
2015-Jul-21 23:25N 35°36' E 027°53'  

Dump ship's entire track history